30°C Temp
19°C Dewpoint
52% Humidity
Temperature
5 KM/H
3 MPH
3 KTS
80°
Due East

Wind Speed
Mostly Cloudy
Conditions
Pressure 1014.92 (hPa) - 29.97 (in)
Visibility 6.2 (mi) - 10.0 (km)

Current Conditions
LIMP
Location 40(km)
Metar :LIMP 131050Z 08003KT 020V100 9999 BKN060 30/19 Q1015
Thu 13th August 11:50 am

Airport
  Metar Aviation API Data Provided by https://www.checkwx.com/ PHP scripts by weather34.com ©2020